Terminal Aerodrome Forecast
Issued by NWS

Home | Current Version | Previous Version | Text Only | Print | Product List | Glossary On
Versions: 1 2 3 4 5 6 7 8 9 10 11 12 13 14 15 16
000
FTUS43 KSGF 011700
TAFJLN
TAF
KJLN 011730Z 0118/0218 16012KT P6SM VCSH SCT040 BKN250
     FM012000 20015G23KT P6SM SCT050 BKN250
     FM020000 19014G22KT P6SM VCTS SCT040CB OVC100
     FM020600 20013G20KT P6SM VCSH SCT040 OVC100 WS020/24050KT
     FM021400 27010KT P6SM BKN030=

USA.gov is the U.S. government's official web portal to all federal, state and local government web resources and services.